Time;durP1;ratioP1;P1;durP2;ratioP2;P2;SDS_P1;SDS_P2;PMS_P1;PMS_P2;Temp;Humidity;BMP_temperature;BMP_pressure;BME280_temperature;BME280_humidity;BME280_pressure;Samples;Min_cycle;Max_cycle;Signal;HPM_P1;HPM_P2
2021/01/20 00:00:19;;;;;;;2.90;1.30;;;8.70;99.90;;;;;;6187067;23;20607;-82
2021/01/20 00:02:45;;;;;;;4.00;1.10;;;8.70;99.90;;;;;;6162736;23;20529;-82
2021/01/20 00:05:12;;;;;;;2.80;1.20;;;8.70;99.90;;;;;;6138164;23;20172;-82
2021/01/20 00:07:38;;;;;;;2.88;1.20;;;8.70;99.90;;;;;;6061644;23;20591;-83
2021/01/20 00:10:05;;;;;;;2.17;1.20;;;8.70;99.90;;;;;;6061151;23;20145;-81
2021/01/20 00:12:30;;;;;;;2.65;1.20;;;8.70;99.90;;;;;;6060747;23;20541;-81
2021/01/20 00:14:56;;;;;;;1.67;1.13;;;8.70;99.90;;;;;;6160204;23;20211;-81
2021/01/20 00:17:22;;;;;;;4.13;1.97;;;8.70;99.90;;;;;;6140861;23;20533;-81
2021/01/20 00:19:48;;;;;;;2.60;1.37;;;8.70;99.90;;;;;;6186481;23;20164;-81
2021/01/20 00:22:14;;;;;;;2.75;1.20;;;8.70;99.90;;;;;;6060740;23;20745;-81
2021/01/20 00:24:40;;;;;;;4.53;1.30;;;8.70;99.90;;;;;;6185691;23;20171;-81
2021/01/20 00:27:08;;;;;;;2.40;1.15;;;8.70;99.90;;;;;;6060699;23;20569;-81
2021/01/20 00:29:34;;;;;;;3.55;1.25;;;8.70;99.90;;;;;;6062984;23;20141;-81
2021/01/20 00:32:01;;;;;;;2.25;1.30;;;8.60;99.90;;;;;;6162560;23;20584;-81
2021/01/20 00:34:29;;;;;;;3.47;1.48;;;8.70;99.90;;;;;;6160528;23;20207;-81
2021/01/20 00:36:56;;;;;;;2.08;1.17;;;8.60;99.90;;;;;;6060593;23;20152;-81
2021/01/20 00:39:22;;;;;;;2.20;1.00;;;8.60;99.90;;;;;;6059783;23;20577;-80
2021/01/20 00:41:47;;;;;;;2.50;1.20;;;8.60;99.90;;;;;;6159378;23;20161;-81
2021/01/20 00:44:14;;;;;;;2.45;1.08;;;8.60;99.90;;;;;;6060311;23;20595;-81
2021/01/20 00:46:40;;;;;;;2.80;1.07;;;8.50;99.90;;;;;;6059783;23;20156;-81
2021/01/20 00:49:06;;;;;;;2.07;1.00;;;8.50;99.90;;;;;;6184008;23;20886;-81
2021/01/20 00:51:32;;;;;;;3.40;1.02;;;8.50;99.90;;;;;;6159516;23;21070;-81
2021/01/20 00:53:57;;;;;;;2.37;1.20;;;8.50;99.90;;;;;;6141237;23;20169;-81
2021/01/20 00:56:24;;;;;;;3.58;1.70;;;8.60;99.90;;;;;;6159613;23;20149;-82
2021/01/20 00:58:50;;;;;;;1.60;1.03;;;8.50;99.90;;;;;;6060028;23;20194;-81
2021/01/20 01:01:16;;;;;;;2.22;1.80;;;8.50;99.90;;;;;;6163766;23;20152;-82
2021/01/20 01:03:42;;;;;;;3.27;1.23;;;8.50;99.90;;;;;;6186099;23;20174;-81
2021/01/20 01:06:09;;;;;;;5.33;1.63;;;8.50;99.90;;;;;;6159908;23;21125;-81
2021/01/20 01:08:35;;;;;;;2.58;1.08;;;8.40;99.90;;;;;;6159282;23;21157;-81
2021/01/20 01:11:02;;;;;;;3.97;1.20;;;8.40;99.90;;;;;;6059836;23;20180;-81
2021/01/20 01:13:45;;;;;;;2.95;1.67;;;8.30;99.90;;;;;;6135190;23;20569;-81
2021/01/20 01:16:29;;;;;;;3.05;1.10;;;8.30;99.90;;;;;;6155090;23;20164;-81
2021/01/20 01:18:57;;;;;;;2.30;1.67;;;8.30;99.90;;;;;;6156949;23;20149;-81
2021/01/20 01:21:23;;;;;;;4.00;1.70;;;8.30;99.90;;;;;;6060078;23;20484;-81
2021/01/20 01:23:49;;;;;;;1.60;1.08;;;8.30;99.90;;;;;;6160387;23;20509;-81
2021/01/20 01:26:15;;;;;;;1.63;1.43;;;8.30;99.90;;;;;;6184415;23;20152;-81
2021/01/20 01:28:42;;;;;;;1.90;1.10;;;8.30;99.90;;;;;;6159204;23;20254;-81
2021/01/20 01:31:25;;;;;;;1.70;1.40;;;8.30;99.90;;;;;;6165496;23;20504;-81
2021/01/20 01:33:51;;;;;;;3.10;2.07;;;8.30;99.90;;;;;;6160124;23;20160;-81
2021/01/20 01:36:19;;;;;;;2.95;1.20;;;8.30;99.90;;;;;;6160761;23;20156;-81
2021/01/20 01:38:47;;;;;;;6.13;1.63;;;8.40;99.90;;;;;;6182710;23;20160;-81
2021/01/20 01:41:20;;;;;;;1.73;1.17;;;8.40;99.90;;;;;;6159193;23;20214;-81
2021/01/20 01:43:59;;;;;;;2.88;1.40;;;8.40;99.90;;;;;;6184552;23;20180;-81
2021/01/20 01:46:46;;;;;;;2.88;1.10;;;8.40;99.90;;;;;;6075258;23;20313;-81
2021/01/20 01:49:21;;;;;;;2.50;1.27;;;8.50;99.90;;;;;;6184156;23;20231;-81
2021/01/20 01:51:50;;;;;;;1.80;1.35;;;8.50;99.90;;;;;;6186736;23;20226;-81
2021/01/20 01:54:36;;;;;;;2.72;1.15;;;8.60;99.90;;;;;;6045096;23;20172;-81
2021/01/20 01:57:09;;;;;;;1.70;1.00;;;8.60;99.90;;;;;;6185367;23;20145;-81
2021/01/20 01:59:41;;;;;;;2.30;1.35;;;8.70;99.90;;;;;;6184889;23;20224;-81
2021/01/20 02:02:16;;;;;;;3.00;2.38;;;8.70;99.90;;;;;;6159702;23;20172;-81
2021/01/20 02:04:42;;;;;;;1.90;1.00;;;8.80;99.90;;;;;;6185045;23;20169;-81
2021/01/20 02:07:13;;;;;;;5.10;1.80;;;8.80;99.90;;;;;;6059349;23;20552;-80
2021/01/20 02:09:40;;;;;;;1.73;1.10;;;8.80;99.90;;;;;;6063120;23;20236;-81
2021/01/20 02:12:39;;;;;;;1.90;1.10;;;8.90;99.90;;;;;;6160239;23;20533;-80
2021/01/20 02:15:10;;;;;;;3.88;1.17;;;8.90;99.90;;;;;;6160566;23;20248;-81
2021/01/20 02:17:53;;;;;;;2.28;1.05;;;9.00;99.90;;;;;;6186666;23;20163;-81
2021/01/20 02:21:00;;;;;;;2.53;0.93;;;9.00;99.90;;;;;;6141034;23;20137;-81
2021/01/20 02:23:30;;;;;;;2.33;1.40;;;9.00;99.90;;;;;;6163143;23;20137;-81
2021/01/20 02:26:25;;;;;;;2.38;1.40;;;9.00;99.90;;;;;;6164567;23;20182;-81
2021/01/20 02:29:48;;;;;;;1.90;1.17;;;9.00;99.90;;;;;;6059526;23;20160;-80
2021/01/20 02:32:53;;;;;;;3.05;1.83;;;9.00;99.90;;;;;;6053400;23;20180;-80
2021/01/20 02:35:32;;;;;;;3.22;1.80;;;9.00;99.90;;;;;;6162950;23;20576;-81
2021/01/20 02:38:01;;;;;;;2.83;1.40;;;9.00;99.90;;;;;;6169034;23;20156;-81
2021/01/20 02:40:41;;;;;;;1.85;1.35;;;9.00;99.90;;;;;;6070081;23;20474;-81
2021/01/20 02:43:25;;;;;;;2.50;1.20;;;9.00;99.90;;;;;;6195212;23;20147;-81
2021/01/20 02:46:10;;;;;;;2.60;1.35;;;9.00;99.90;;;;;;6167954;23;20171;-81
2021/01/20 02:48:36;;;;;;;3.10;1.57;;;9.10;99.90;;;;;;6186130;23;20619;-81
2021/01/20 02:51:02;;;;;;;5.20;1.77;;;9.00;99.90;;;;;;6062769;23;20563;-81
2021/01/20 02:53:38;;;;;;;1.50;1.10;;;9.10;99.90;;;;;;6163684;23;20661;-81
2021/01/20 02:56:25;;;;;;;2.60;1.33;;;9.10;99.90;;;;;;6063001;23;20148;-80
2021/01/20 02:59:11;;;;;;;3.15;1.30;;;9.10;99.90;;;;;;6060990;23;20152;-80
2021/01/20 03:02:12;;;;;;;4.60;1.25;;;9.10;99.90;;;;;;6185656;23;20228;-80
2021/01/20 03:04:42;;;;;;;2.85;1.58;;;9.10;99.90;;;;;;6061040;23;20212;-80
2021/01/20 03:07:08;;;;;;;1.75;1.10;;;9.10;99.90;;;;;;6060730;23;20180;-80
2021/01/20 03:09:35;;;;;;;2.25;1.50;;;9.20;99.90;;;;;;6060716;23;20513;-80
2021/01/20 03:12:04;;;;;;;1.80;1.02;;;9.10;99.90;;;;;;6061054;23;20208;-79
2021/01/20 03:14:31;;;;;;;2.13;1.52;;;9.20;99.90;;;;;;6061494;23;20171;-80
2021/01/20 03:16:57;;;;;;;1.95;1.60;;;9.20;99.90;;;;;;6161420;23;20662;-80
2021/01/20 03:19:23;;;;;;;1.80;1.30;;;9.20;99.90;;;;;;6060466;23;20205;-79
2021/01/20 03:21:48;;;;;;;3.53;1.47;;;9.20;99.90;;;;;;6060964;23;20184;-79
2021/01/20 03:24:14;;;;;;;2.40;1.53;;;9.20;99.90;;;;;;6192456;23;20180;-80
2021/01/20 03:26:40;;;;;;;2.93;1.50;;;9.20;99.90;;;;;;6161554;23;20165;-80
2021/01/20 03:29:06;;;;;;;3.20;1.20;;;9.20;99.90;;;;;;6061725;23;20844;-80
2021/01/20 03:31:32;;;;;;;2.47;0.90;;;9.20;99.90;;;;;;6187156;23;20148;-80
2021/01/20 03:33:58;;;;;;;1.87;1.07;;;9.20;99.90;;;;;;6061764;23;20195;-80
2021/01/20 03:36:25;;;;;;;2.90;1.30;;;9.20;99.90;;;;;;6061679;23;20145;-80
2021/01/20 03:38:51;;;;;;;2.40;1.40;;;9.20;99.90;;;;;;6062797;23;20529;-80
2021/01/20 03:41:17;;;;;;;2.10;1.20;;;9.20;99.90;;;;;;6164868;23;20163;-80
2021/01/20 03:43:42;;;;;;;2.37;1.40;;;9.20;99.90;;;;;;6189712;23;20658;-79
2021/01/20 03:46:08;;;;;;;3.50;1.60;;;9.20;99.90;;;;;;6162847;23;20140;-80
2021/01/20 03:48:34;;;;;;;3.33;1.70;;;9.10;99.90;;;;;;6062714;23;20553;-80
2021/01/20 03:51:00;;;;;;;3.30;1.70;;;9.10;99.90;;;;;;6063343;23;20851;-81
2021/01/20 03:53:28;;;;;;;2.45;1.52;;;9.10;99.90;;;;;;6063256;23;20529;-81
2021/01/20 03:55:53;;;;;;;3.40;1.30;;;9.10;99.90;;;;;;6060798;23;20152;-81
2021/01/20 03:58:19;;;;;;;3.00;1.57;;;9.00;99.90;;;;;;6134266;23;20157;-80
2021/01/20 04:00:45;;;;;;;3.80;1.80;;;9.00;99.90;;;;;;6067683;23;20159;-81
2021/01/20 04:03:10;;;;;;;2.53;1.70;;;9.00;99.90;;;;;;6061488;23;20616;-81
2021/01/20 04:05:59;;;;;;;2.50;1.90;;;9.00;99.90;;;;;;6068429;23;20157;-81
2021/01/20 04:08:25;;;;;;;1.60;1.10;;;9.00;99.90;;;;;;6060415;23;20186;-81
2021/01/20 04:10:50;;;;;;;1.53;1.13;;;9.00;99.90;;;;;;6062425;23;20151;-82
2021/01/20 04:13:17;;;;;;;1.92;1.25;;;9.00;99.90;;;;;;6159836;23;20192;-82
2021/01/20 04:15:43;;;;;;;2.57;2.07;;;9.10;99.90;;;;;;6061047;23;20165;-80
2021/01/20 04:18:10;;;;;;;2.55;1.40;;;9.10;99.90;;;;;;6069386;23;20860;-82
2021/01/20 04:20:36;;;;;;;2.03;1.77;;;9.10;99.90;;;;;;6072467;23;20531;-82
2021/01/20 04:23:02;;;;;;;2.88;1.50;;;9.20;99.90;;;;;;6186360;23;20156;-80
2021/01/20 04:25:28;;;;;;;2.23;1.50;;;9.20;99.90;;;;;;6060894;23;20169;-80
2021/01/20 04:27:54;;;;;;;2.17;1.97;;;9.20;99.90;;;;;;6185281;23;20184;-80
2021/01/20 04:30:20;;;;;;;2.23;1.70;;;9.30;99.90;;;;;;6163598;23;20180;-80
2021/01/20 04:32:46;;;;;;;2.80;2.05;;;9.30;99.90;;;;;;6136529;23;20144;-79
2021/01/20 04:35:12;;;;;;;2.67;1.80;;;9.20;99.90;;;;;;6061936;23;20172;-80
2021/01/20 04:37:38;;;;;;;3.07;1.50;;;9.30;99.90;;;;;;6063948;23;20525;-80
2021/01/20 04:40:05;;;;;;;2.53;1.67;;;9.30;99.90;;;;;;6161271;23;20583;-80
2021/01/20 04:42:32;;;;;;;2.20;1.50;;;9.30;99.90;;;;;;6061423;23;20560;-80
2021/01/20 04:44:59;;;;;;;3.63;2.25;;;9.30;99.90;;;;;;6187067;23;20574;-80
2021/01/20 04:47:26;;;;;;;3.90;1.90;;;9.40;99.90;;;;;;6186708;23;20220;-79
2021/01/20 04:49:53;;;;;;;2.53;1.45;;;9.40;99.90;;;;;;6187714;23;20742;-80
2021/01/20 04:52:21;;;;;;;3.25;1.73;;;9.50;99.90;;;;;;6179817;23;20165;-79
2021/01/20 04:54:48;;;;;;;2.17;1.63;;;9.50;99.90;;;;;;6206989;23;20172;-79
2021/01/20 04:57:15;;;;;;;3.28;1.80;;;9.50;99.90;;;;;;6082060;23;20141;-79
2021/01/20 04:59:42;;;;;;;1.65;1.25;;;9.50;99.90;;;;;;6064248;23;20166;-80
2021/01/20 05:02:12;;;;;;;2.40;1.50;;;9.50;99.90;;;;;;6062527;23;20153;-80
2021/01/20 05:04:41;;;;;;;2.10;1.73;;;9.60;99.90;;;;;;6061786;23;20176;-81
2021/01/20 05:07:07;;;;;;;3.08;1.70;;;9.50;99.90;;;;;;6161238;23;20198;-81
2021/01/20 05:09:34;;;;;;;2.33;1.30;;;9.60;99.90;;;;;;6060654;23;20160;-81
2021/01/20 05:12:00;;;;;;;2.78;2.20;;;9.60;99.90;;;;;;6135506;23;20184;-81
2021/01/20 05:14:26;;;;;;;2.10;1.73;;;9.50;99.90;;;;;;6066393;23;20168;-80
2021/01/20 05:16:53;;;;;;;2.50;1.70;;;9.50;99.90;;;;;;6185748;23;20200;-80
2021/01/20 05:19:37;;;;;;;4.45;1.80;;;9.60;99.90;;;;;;6059758;23;20529;-80
2021/01/20 05:22:11;;;;;;;2.70;1.95;;;9.50;99.90;;;;;;6160278;23;20148;-81
2021/01/20 05:24:38;;;;;;;1.80;1.60;;;9.40;99.90;;;;;;6160500;23;20172;-81
2021/01/20 05:27:05;;;;;;;4.65;1.95;;;9.40;99.90;;;;;;6160101;23;20175;-80
2021/01/20 05:29:31;;;;;;;2.42;1.75;;;9.50;99.90;;;;;;6060141;23;20148;-80
2021/01/20 05:32:13;;;;;;;4.63;1.67;;;9.40;99.90;;;;;;6160429;23;20214;-81
2021/01/20 05:34:39;;;;;;;3.75;1.83;;;9.40;99.90;;;;;;6137744;23;20177;-81
2021/01/20 05:37:10;;;;;;;2.25;1.98;;;9.30;99.90;;;;;;6062602;23;20153;-81
2021/01/20 05:39:38;;;;;;;3.40;1.60;;;9.30;99.90;;;;;;6159551;23;20234;-81
2021/01/20 05:42:10;;;;;;;2.65;1.92;;;9.30;99.90;;;;;;6160108;23;20529;-80
2021/01/20 05:44:37;;;;;;;3.53;2.30;;;9.30;99.90;;;;;;6060783;23;20176;-80
2021/01/20 05:47:11;;;;;;;3.72;2.25;;;9.30;99.90;;;;;;6161934;23;20192;-80
2021/01/20 05:49:38;;;;;;;3.17;1.77;;;9.20;99.90;;;;;;6065185;23;20148;-81
2021/01/20 05:52:12;;;;;;;3.38;1.65;;;9.30;99.90;;;;;;6067470;23;20208;-80
2021/01/20 05:54:39;;;;;;;3.38;1.50;;;9.20;99.90;;;;;;6061025;23;20594;-80
2021/01/20 05:57:19;;;;;;;4.35;1.80;;;9.30;99.90;;;;;;6060521;23;20159;-80
2021/01/20 05:59:48;;;;;;;2.08;1.50;;;9.30;99.90;;;;;;6159527;23;20137;-80
2021/01/20 06:02:16;;;;;;;4.60;1.63;;;9.30;99.90;;;;;;6158918;23;20164;-80
2021/01/20 06:04:42;;;;;;;3.63;1.52;;;9.30;99.90;;;;;;6060217;23;20223;-80
2021/01/20 06:07:14;;;;;;;3.83;1.95;;;9.30;99.90;;;;;;6159979;23;20259;-80
2021/01/20 06:09:44;;;;;;;2.42;1.80;;;9.30;99.90;;;;;;6060186;23;20544;-81
2021/01/20 06:12:12;;;;;;;2.53;1.55;;;9.30;99.90;;;;;;6159690;23;20137;-80
2021/01/20 06:14:38;;;;;;;3.25;1.73;;;9.30;99.90;;;;;;6060365;23;20168;-79
2021/01/20 06:17:18;;;;;;;2.28;1.15;;;9.30;99.90;;;;;;6061858;23;20157;-79
2021/01/20 06:19:47;;;;;;;2.45;1.90;;;9.30;99.90;;;;;;6061073;23;20153;-78
2021/01/20 06:22:18;;;;;;;5.82;1.45;;;9.40;99.90;;;;;;6162989;23;20168;-80
2021/01/20 06:24:58;;;;;;;2.65;1.33;;;9.40;99.90;;;;;;6165256;23;20187;-79
2021/01/20 06:27:37;;;;;;;2.20;1.23;;;9.40;99.90;;;;;;6138566;23;20179;-80
2021/01/20 06:30:32;;;;;;;2.35;1.50;;;9.40;99.90;;;;;;6167252;23;20173;-80
2021/01/20 06:33:03;;;;;;;2.15;1.45;;;9.50;99.90;;;;;;6062120;23;20661;-80
2021/01/20 06:35:47;;;;;;;2.05;1.10;;;9.50;99.90;;;;;;6063419;23;20171;-81
2021/01/20 06:38:28;;;;;;;2.20;1.30;;;9.50;99.90;;;;;;6161926;23;20172;-80
2021/01/20 06:40:58;;;;;;;1.63;1.10;;;9.50;99.90;;;;;;6161926;23;20156;-80
2021/01/20 06:43:37;;;;;;;3.65;1.60;;;9.60;99.90;;;;;;6062520;23;20487;-79
2021/01/20 06:46:25;;;;;;;2.47;1.48;;;9.60;99.90;;;;;;6059150;23;20977;-78
2021/01/20 06:48:54;;;;;;;1.98;1.20;;;9.50;99.90;;;;;;6060615;23;20195;-81
2021/01/20 06:51:21;;;;;;;3.80;1.70;;;9.60;99.90;;;;;;6060812;23;20655;-80
2021/01/20 06:54:00;;;;;;;2.58;1.35;;;9.60;99.90;;;;;;6159817;23;20671;-78
2021/01/20 06:56:32;;;;;;;3.15;1.48;;;9.50;99.90;;;;;;6063490;23;20187;-79
2021/01/20 06:59:30;;;;;;;2.13;1.20;;;9.60;99.90;;;;;;6060602;23;20148;-79
2021/01/20 07:02:02;;;;;;;5.38;1.27;;;9.70;99.90;;;;;;6119919;23;20188;-78
2021/01/20 07:04:37;;;;;;;2.45;1.50;;;9.70;99.90;;;;;;6062359;23;20683;-78
2021/01/20 07:07:13;;;;;;;3.75;2.00;;;9.80;99.90;;;;;;6066350;23;20168;-77
2021/01/20 07:09:57;;;;;;;2.50;1.10;;;9.80;99.90;;;;;;6187201;23;20169;-77
2021/01/20 07:12:24;;;;;;;2.45;1.20;;;9.90;99.90;;;;;;6062691;23;20137;-77
2021/01/20 07:14:52;;;;;;;3.35;1.38;;;9.90;99.90;;;;;;6163536;23;20703;-79
2021/01/20 07:17:19;;;;;;;11.25;1.55;;;10.00;99.90;;;;;;6139960;23;20160;-78
2021/01/20 07:19:45;;;;;;;2.28;1.63;;;10.00;99.90;;;;;;6062807;23;20153;-79
2021/01/20 07:22:12;;;;;;;3.17;1.60;;;10.00;99.90;;;;;;6062366;23;20156;-80
2021/01/20 07:24:38;;;;;;;2.75;1.40;;;10.10;99.90;;;;;;6161465;23;20164;-80
2021/01/20 07:27:09;;;;;;;2.08;1.10;;;10.10;99.90;;;;;;6138028;23;20202;-79
2021/01/20 07:29:36;;;;;;;4.00;1.60;;;10.10;99.90;;;;;;6168734;23;20530;-79
2021/01/20 07:32:02;;;;;;;2.15;1.27;;;10.10;99.90;;;;;;6067341;23;20152;-79
2021/01/20 07:34:35;;;;;;;1.48;0.90;;;10.10;99.90;;;;;;6069244;23;20161;-79
2021/01/20 07:37:13;;;;;;;1.35;0.90;;;10.10;99.90;;;;;;6167625;23;20157;-79
2021/01/20 07:39:39;;;;;;;1.90;1.17;;;10.20;99.90;;;;;;6169463;23;20658;-80
2021/01/20 07:42:05;;;;;;;4.57;1.40;;;10.10;99.90;;;;;;6170953;23;20156;-80
2021/01/20 07:44:33;;;;;;;6.45;1.50;;;10.10;99.90;;;;;;6171690;23;20622;-80
2021/01/20 07:47:04;;;;;;;2.10;1.20;;;10.20;99.90;;;;;;6196163;23;20634;-80
2021/01/20 07:49:30;;;;;;;1.88;1.40;;;10.20;99.90;;;;;;6068355;23;20141;-80
2021/01/20 07:51:59;;;;;;;2.72;1.00;;;10.30;99.90;;;;;;6067062;23;20164;-80
2021/01/20 07:54:25;;;;;;;1.73;1.45;;;10.30;99.90;;;;;;6191453;23;20172;-80
2021/01/20 07:56:50;;;;;;;1.80;1.10;;;10.40;99.90;;;;;;6069298;23;20143;-80
2021/01/20 07:59:18;;;;;;;2.20;1.00;;;10.40;99.90;;;;;;6069467;23;20506;-80
2021/01/20 08:01:44;;;;;;;2.88;1.20;;;10.40;99.90;;;;;;6163032;23;20501;-80
2021/01/20 08:04:24;;;;;;;2.65;1.52;;;10.40;99.90;;;;;;6060808;23;20168;-80
2021/01/20 08:06:50;;;;;;;2.70;1.20;;;10.40;99.90;;;;;;6060251;23;20187;-78
2021/01/20 08:09:17;;;;;;;2.70;1.60;;;10.40;99.90;;;;;;6059510;23;20713;-80
2021/01/20 08:11:46;;;;;;;4.15;1.20;;;10.40;99.90;;;;;;6135117;23;20164;-80
2021/01/20 08:14:12;;;;;;;2.75;1.17;;;10.40;99.90;;;;;;6185530;23;20172;-80
2021/01/20 08:16:40;;;;;;;2.80;1.30;;;10.40;99.90;;;;;;6159303;23;20749;-80
2021/01/20 08:19:06;;;;;;;2.55;2.28;;;10.40;99.90;;;;;;6060773;23;20141;-80
2021/01/20 08:21:33;;;;;;;5.03;1.60;;;10.40;99.90;;;;;;6064454;23;20703;-79
2021/01/20 08:24:01;;;;;;;3.30;1.50;;;10.30;99.90;;;;;;6060548;23;20168;-79
2021/01/20 08:26:30;;;;;;;3.47;1.73;;;10.30;99.90;;;;;;6059992;23;20545;-79
2021/01/20 08:29:12;;;;;;;3.63;2.20;;;10.30;99.90;;;;;;6060025;23;20183;-80
2021/01/20 08:31:39;;;;;;;3.78;2.00;;;10.30;99.90;;;;;;6060592;23;20155;-80
2021/01/20 08:34:22;;;;;;;3.13;2.00;;;10.30;99.90;;;;;;6060200;23;20164;-81
2021/01/20 08:37:00;;;;;;;2.42;1.42;;;10.20;99.90;;;;;;6060432;23;20167;-82
2021/01/20 08:39:29;;;;;;;4.20;2.30;;;10.20;99.90;;;;;;6059341;23;20532;-80
2021/01/20 08:42:16;;;;;;;3.17;1.38;;;10.10;99.90;;;;;;6060091;23;20461;-80
2021/01/20 08:45:03;;;;;;;4.70;1.52;;;10.10;99.90;;;;;;6060611;23;20175;-80
2021/01/20 08:47:29;;;;;;;2.05;1.35;;;10.10;99.90;;;;;;6160219;23;20176;-82
2021/01/20 08:49:55;;;;;;;3.05;1.65;;;10.10;99.90;;;;;;6161717;23;20149;-80
2021/01/20 08:52:22;;;;;;;2.70;1.90;;;10.10;99.90;;;;;;6160961;23;20149;-81
2021/01/20 08:54:55;;;;;;;3.00;1.85;;;10.10;99.90;;;;;;6060515;23;20762;-80
2021/01/20 08:58:22;;;;;;;1.98;1.50;;;10.00;99.90;;;;;;6124255;23;20172;-80
2021/01/20 09:00:54;;;;;;;2.28;1.58;;;10.10;99.90;;;;;;6063287;23;20179;-80
2021/01/20 09:03:28;;;;;;;3.63;1.70;;;10.10;99.90;;;;;;6138142;23;20144;-81
2021/01/20 09:05:57;;;;;;;2.72;1.38;;;10.10;99.90;;;;;;6161847;23;20156;-79
2021/01/20 09:08:25;;;;;;;2.70;1.70;;;10.10;99.90;;;;;;6162855;23;20165;-81
2021/01/20 09:11:00;;;;;;;3.28;1.85;;;10.10;99.90;;;;;;6064202;23;20156;-80
2021/01/20 09:13:56;;;;;;;3.25;1.95;;;10.10;99.90;;;;;;6076255;23;20706;-79
2021/01/20 09:16:29;;;;;;;2.40;2.10;;;10.10;99.90;;;;;;6184845;23;20670;-79
2021/01/20 09:18:56;;;;;;;4.28;3.28;;;10.10;99.90;;;;;;6159492;23;20540;-80
2021/01/20 09:21:22;;;;;;;2.70;1.85;;;10.10;99.90;;;;;;6061148;23;20149;-79
2021/01/20 09:23:51;;;;;;;2.13;1.73;;;10.20;99.90;;;;;;6161707;23;20160;-79
2021/01/20 09:26:17;;;;;;;2.83;1.90;;;10.30;99.90;;;;;;6158884;23;20548;-79
2021/01/20 09:28:43;;;;;;;2.95;2.15;;;10.30;99.90;;;;;;6160267;23;20206;-79
2021/01/20 09:31:09;;;;;;;3.33;2.03;;;10.40;99.90;;;;;;6189838;23;20180;-78
2021/01/20 09:33:35;;;;;;;3.40;1.97;;;10.40;99.90;;;;;;6148855;23;20533;-78
2021/01/20 09:36:02;;;;;;;3.35;1.75;;;10.40;99.90;;;;;;6070566;23;21077;-77
2021/01/20 09:38:27;;;;;;;3.27;2.20;;;10.40;99.90;;;;;;6195832;23;20153;-79
2021/01/20 09:40:54;;;;;;;2.83;1.63;;;10.50;99.90;;;;;;6187382;23;20536;-79
2021/01/20 09:43:21;;;;;;;2.67;1.55;;;10.50;99.90;;;;;;6161295;23;20908;-80
2021/01/20 09:45:47;;;;;;;3.17;1.20;;;10.50;99.90;;;;;;6059995;23;20168;-78
2021/01/20 09:48:15;;;;;;;6.18;1.90;;;10.50;99.90;;;;;;6159169;23;20182;-77
2021/01/20 09:50:44;;;;;;;3.30;1.98;;;10.60;99.90;;;;;;6060528;23;20180;-78
2021/01/20 09:53:10;;;;;;;3.13;2.22;;;10.60;99.90;;;;;;6061403;23;20144;-78
2021/01/20 09:55:36;;;;;;;3.85;1.90;;;10.50;99.80;;;;;;6160170;23;20707;-79
2021/01/20 09:58:03;;;;;;;2.87;1.80;;;10.50;99.90;;;;;;6160793;23;20149;-79
2021/01/20 10:00:29;;;;;;;3.90;1.75;;;10.50;99.90;;;;;;6061548;23;20153;-80
2021/01/20 10:02:56;;;;;;;3.00;2.38;;;10.60;99.90;;;;;;6061523;23;20152;-78
2021/01/20 10:05:23;;;;;;;1.70;1.23;;;10.70;99.90;;;;;;6115081;23;20184;-78
2021/01/20 10:07:50;;;;;;;4.78;1.88;;;10.70;99.90;;;;;;6136150;23;20191;-80
2021/01/20 10:10:16;;;;;;;2.40;1.40;;;10.80;99.90;;;;;;6062153;23;20149;-79
2021/01/20 10:12:42;;;;;;;2.47;1.90;;;10.80;99.60;;;;;;6140592;23;20160;-80
2021/01/20 10:15:09;;;;;;;2.63;1.20;;;10.80;99.30;;;;;;6194541;23;20169;-80
2021/01/20 10:17:35;;;;;;;1.55;1.00;;;10.90;99.90;;;;;;6140364;23;20157;-80
2021/01/20 10:20:06;;;;;;;2.20;1.27;;;11.00;99.90;;;;;;6186892;23;20157;-80
2021/01/20 10:22:32;;;;;;;4.57;1.27;;;11.10;99.90;;;;;;6061490;23;20179;-80
2021/01/20 10:24:57;;;;;;;2.33;1.30;;;11.20;99.90;;;;;;6063354;23;20177;-79
2021/01/20 10:27:23;;;;;;;2.30;1.30;;;11.30;99.90;;;;;;6071250;23;20173;-80
2021/01/20 10:29:49;;;;;;;2.73;1.60;;;11.40;99.90;;;;;;6078222;23;20589;-80
2021/01/20 10:32:15;;;;;;;1.98;1.50;;;11.40;99.90;;;;;;6077814;23;20228;-80
2021/01/20 10:34:41;;;;;;;2.47;1.40;;;11.50;99.90;;;;;;6079842;23;20527;-81
2021/01/20 10:37:07;;;;;;;2.33;2.13;;;11.50;99.50;;;;;;6155048;23;20208;-80
2021/01/20 10:39:35;;;;;;;3.85;1.75;;;11.40;98.40;;;;;;6080880;23;20148;-79
2021/01/20 10:42:02;;;;;;;3.05;1.50;;;11.40;98.00;;;;;;6179188;23;20180;-80
2021/01/20 10:44:29;;;;;;;1.80;1.30;;;11.50;99.10;;;;;;6165194;23;20192;-79
2021/01/20 10:46:54;;;;;;;2.22;1.73;;;11.50;99.20;;;;;;6186374;23;20617;-79
2021/01/20 10:49:20;;;;;;;2.30;1.83;;;11.50;99.00;;;;;;6154753;23;20132;-81
2021/01/20 10:51:46;;;;;;;2.60;1.40;;;11.50;98.90;;;;;;6142808;23;20688;-78
2021/01/20 10:54:12;;;;;;;2.87;1.20;;;11.50;99.60;;;;;;6186547;23;21090;-78
2021/01/20 10:56:40;;;;;;;2.53;1.70;;;11.60;99.80;;;;;;6060971;23;20307;-78
2021/01/20 10:59:05;;;;;;;3.45;1.90;;;11.50;98.10;;;;;;6060368;23;20493;-79
2021/01/20 11:01:31;;;;;;;5.53;1.50;;;11.50;98.20;;;;;;6160182;23;20703;-80
2021/01/20 11:03:57;;;;;;;1.90;1.40;;;11.50;98.70;;;;;;6185546;23;20635;-79
2021/01/20 11:06:23;;;;;;;2.33;1.70;;;11.50;98.50;;;;;;6160530;23;20686;-79
2021/01/20 11:08:48;;;;;;;3.20;1.60;;;11.50;97.60;;;;;;6138767;23;20176;-79
2021/01/20 11:11:14;;;;;;;2.93;1.80;;;11.40;97.40;;;;;;6188268;23;20247;-79
2021/01/20 11:13:40;;;;;;;3.87;1.90;;;11.40;96.10;;;;;;6064307;23;20149;-81
2021/01/20 11:16:06;;;;;;;2.85;1.77;;;11.40;97.00;;;;;;6162520;23;20476;-81
2021/01/20 11:18:33;;;;;;;7.63;2.00;;;11.40;96.90;;;;;;6161188;23;20164;-80
2021/01/20 11:21:00;;;;;;;1.75;1.20;;;11.40;96.50;;;;;;6163053;23;20471;-80
2021/01/20 11:23:35;;;;;;;2.35;1.45;;;11.40;96.50;;;;;;6165473;23;20156;-80
2021/01/20 11:26:01;;;;;;;2.45;1.30;;;11.40;96.40;;;;;;6166769;23;20171;-79
2021/01/20 11:28:27;;;;;;;3.33;1.40;;;11.50;97.00;;;;;;6060034;23;20184;-80
2021/01/20 11:30:55;;;;;;;2.97;1.70;;;11.60;97.40;;;;;;6060734;23;20133;-80
2021/01/20 11:33:20;;;;;;;2.50;1.58;;;11.60;97.30;;;;;;6186695;23;20184;-79
2021/01/20 11:35:46;;;;;;;2.67;1.47;;;11.60;95.20;;;;;;6061333;23;20172;-79
2021/01/20 11:38:12;;;;;;;2.40;1.70;;;11.70;95.90;;;;;;6161664;23;20161;-80
2021/01/20 11:40:38;;;;;;;2.17;1.97;;;11.70;94.90;;;;;;6162905;23;20164;-80
2021/01/20 11:43:05;;;;;;;4.13;1.30;;;11.70;94.80;;;;;;6162509;23;20183;-78
2021/01/20 11:45:36;;;;;;;3.60;1.63;;;11.70;93.80;;;;;;6162418;23;20194;-79
2021/01/20 11:48:03;;;;;;;1.45;1.05;;;11.70;93.70;;;;;;6063793;23;20184;-79
2021/01/20 11:50:29;;;;;;;2.08;1.40;;;11.70;95.90;;;;;;6196500;23;20149;-79
2021/01/20 11:52:55;;;;;;;2.17;1.30;;;11.80;96.20;;;;;;6075690;23;20479;-79
2021/01/20 11:55:22;;;;;;;3.30;1.83;;;11.80;95.70;;;;;;6141618;23;20614;-80
2021/01/20 11:57:48;;;;;;;3.10;2.15;;;11.80;95.30;;;;;;6158218;23;20540;-80
2021/01/20 12:00:15;;;;;;;2.83;1.63;;;11.80;96.30;;;;;;6059264;23;20765;-80
2021/01/20 12:02:42;;;;;;;2.70;1.80;;;11.70;95.40;;;;;;6189928;23;20541;-79
2021/01/20 12:05:10;;;;;;;2.88;1.60;;;11.70;96.10;;;;;;6063674;23;20175;-79
2021/01/20 12:07:36;;;;;;;2.92;2.42;;;11.60;96.40;;;;;;6170089;23;20187;-78
2021/01/20 12:10:04;;;;;;;4.38;1.88;;;11.70;96.80;;;;;;6162903;23;20172;-80
2021/01/20 12:12:30;;;;;;;3.47;2.10;;;11.60;97.10;;;;;;6062190;23;20148;-79
2021/01/20 12:14:56;;;;;;;2.60;1.67;;;11.60;97.20;;;;;;6165812;23;20796;-79
2021/01/20 12:17:21;;;;;;;3.47;1.90;;;11.60;96.80;;;;;;6159122;23;20176;-78
2021/01/20 12:19:47;;;;;;;4.70;2.50;;;11.50;96.70;;;;;;6061590;23;20149;-79
2021/01/20 12:22:13;;;;;;;8.55;4.32;;;11.40;96.80;;;;;;6160282;23;20537;-78
2021/01/20 12:24:39;;;;;;;4.05;2.80;;;11.40;96.90;;;;;;6186577;23;20698;-80
2021/01/20 12:27:05;;;;;;;7.82;2.42;;;11.30;96.30;;;;;;6062631;23;20175;-79
2021/01/20 12:29:32;;;;;;;3.40;1.85;;;11.20;96.50;;;;;;6059554;23;20149;-79
2021/01/20 12:31:57;;;;;;;3.50;2.70;;;11.20;96.60;;;;;;6185409;23;20158;-80
2021/01/20 12:34:23;;;;;;;4.67;2.00;;;11.20;96.80;;;;;;6061355;23;20172;-80
2021/01/20 12:36:50;;;;;;;3.50;2.20;;;11.20;96.90;;;;;;6189169;23;20560;-81
2021/01/20 12:39:16;;;;;;;3.50;2.15;;;11.20;96.70;;;;;;6062175;23;20543;-81
2021/01/20 12:41:42;;;;;;;2.90;2.13;;;11.10;96.60;;;;;;6060532;23;20161;-81
2021/01/20 12:44:08;;;;;;;2.95;1.88;;;11.20;97.00;;;;;;6061104;23;20591;-81
2021/01/20 12:46:34;;;;;;;2.75;1.70;;;11.20;97.50;;;;;;6060138;23;20556;-81
2021/01/20 12:49:00;;;;;;;2.77;1.93;;;11.20;97.40;;;;;;6159433;23;20164;-80
2021/01/20 12:51:28;;;;;;;2.97;2.17;;;11.20;97.40;;;;;;6184905;23;21290;-80
2021/01/20 12:53:54;;;;;;;8.13;4.00;;;11.30;97.50;;;;;;6060726;23;20220;-80
2021/01/20 12:56:20;;;;;;;5.93;3.97;;;11.30;97.60;;;;;;6135326;23;20159;-81
2021/01/20 12:58:46;;;;;;;8.90;4.27;;;11.40;97.60;;;;;;6159248;23;20136;-80
2021/01/20 13:01:11;;;;;;;6.17;3.40;;;11.30;97.10;;;;;;6060416;23;20591;-80
2021/01/20 13:03:37;;;;;;;4.30;2.90;;;11.40;97.70;;;;;;6060595;23;20155;-81
2021/01/20 13:06:08;;;;;;;5.60;4.03;;;11.30;96.90;;;;;;6186370;23;20235;-80